Time;durP1;ratioP1;P1;durP2;ratioP2;P2;SDS_P1;SDS_P2;PMS_P1;PMS_P2;Temp;Humidity;BMP_temperature;BMP_pressure;BME280_temperature;BME280_humidity;BME280_pressure;Samples;Min_cycle;Max_cycle;Signal;HPM_P1;HPM_P2
2023/07/22 00:02:24;;;;;;;14.55;7.00;;;15.00;99.90;;;;;;5035330;28;20030;-52
2023/07/22 00:04:52;;;;;;;14.73;6.63;;;15.10;99.90;;;;;;5047321;28;20021;-52
2023/07/22 00:07:17;;;;;;;18.42;8.10;;;15.00;99.90;;;;;;5054466;28;20036;-52
2023/07/22 00:09:43;;;;;;;13.35;6.55;;;15.10;99.90;;;;;;5054873;28;20402;-51
2023/07/22 00:12:09;;;;;;;13.07;6.22;;;15.10;99.90;;;;;;5054686;28;20489;-53
2023/07/22 00:14:41;;;;;;;11.98;6.28;;;15.00;99.90;;;;;;5053910;28;20504;-53
2023/07/22 00:17:07;;;;;;;16.58;7.63;;;15.10;99.90;;;;;;5041980;28;20033;-56
2023/07/22 00:19:33;;;;;;;14.95;6.78;;;15.00;99.90;;;;;;5035109;28;20543;-53
2023/07/22 00:21:59;;;;;;;20.88;8.35;;;15.00;99.90;;;;;;5035013;28;20025;-52
2023/07/22 00:24:25;;;;;;;10.98;6.45;;;15.00;99.90;;;;;;5041884;28;20100;-50
2023/07/22 00:26:51;;;;;;;14.73;6.85;;;15.00;99.90;;;;;;5051895;28;20033;-50
2023/07/22 00:29:16;;;;;;;13.82;6.50;;;14.90;99.90;;;;;;5045634;28;20123;-54
2023/07/22 00:31:42;;;;;;;14.55;6.57;;;15.00;99.90;;;;;;5051584;28;20028;-53
2023/07/22 00:34:09;;;;;;;13.95;6.93;;;15.00;99.90;;;;;;5048171;28;20025;-50
2023/07/22 00:36:34;;;;;;;16.23;7.80;;;15.00;99.90;;;;;;5034972;28;20052;-51
2023/07/22 00:39:01;;;;;;;15.18;8.10;;;15.00;99.90;;;;;;5053619;28;20064;-53
2023/07/22 00:41:27;;;;;;;13.23;7.65;;;15.00;99.90;;;;;;5044599;28;20043;-51
2023/07/22 00:43:52;;;;;;;18.10;9.20;;;15.00;99.90;;;;;;5047660;28;20021;-55
2023/07/22 00:46:18;;;;;;;18.63;7.90;;;15.00;99.90;;;;;;5049504;28;20028;-52
2023/07/22 00:48:44;;;;;;;16.63;7.78;;;15.00;99.90;;;;;;5052402;28;20017;-56
2023/07/22 00:51:10;;;;;;;17.83;8.02;;;15.00;99.90;;;;;;5053684;28;20495;-52
2023/07/22 00:53:36;;;;;;;15.52;7.10;;;15.00;99.90;;;;;;5049208;28;20024;-51
2023/07/22 00:56:01;;;;;;;14.48;7.53;;;15.00;99.90;;;;;;5037591;28;20022;-52
2023/07/22 00:58:27;;;;;;;17.65;7.05;;;15.00;99.90;;;;;;5041580;28;20496;-51
2023/07/22 01:00:53;;;;;;;18.42;8.45;;;15.00;99.90;;;;;;5038335;28;20025;-52
2023/07/22 01:03:19;;;;;;;17.15;8.00;;;14.90;99.90;;;;;;5051621;28;20362;-54
2023/07/22 01:05:47;;;;;;;19.80;9.05;;;14.90;99.90;;;;;;5050415;28;20021;-53
2023/07/22 01:08:13;;;;;;;16.45;7.85;;;14.90;99.90;;;;;;5048494;28;20017;-52
2023/07/22 01:10:39;;;;;;;29.00;9.43;;;14.90;99.90;;;;;;5049061;28;20028;-52
2023/07/22 01:13:05;;;;;;;14.98;7.75;;;14.90;99.90;;;;;;5050600;28;20037;-47
2023/07/22 01:15:31;;;;;;;16.02;7.15;;;14.90;99.90;;;;;;5050923;28;20075;-50
2023/07/22 01:18:01;;;;;;;20.67;9.32;;;14.90;99.90;;;;;;5050722;28;20119;-51
2023/07/22 01:20:28;;;;;;;19.45;9.05;;;15.00;99.90;;;;;;5053055;28;20119;-52
2023/07/22 01:22:54;;;;;;;15.88;7.60;;;15.00;99.90;;;;;;5061037;28;20090;-51
2023/07/22 01:25:24;;;;;;;17.35;8.30;;;15.00;99.90;;;;;;5049145;28;20017;-54
2023/07/22 01:27:52;;;;;;;18.05;7.63;;;15.00;99.90;;;;;;5054147;28;20407;-52
2023/07/22 01:30:19;;;;;;;21.20;8.27;;;15.00;99.90;;;;;;5053577;28;20025;-52
2023/07/22 01:32:45;;;;;;;16.63;7.97;;;15.00;99.90;;;;;;5053175;28;20021;-52
2023/07/22 01:35:10;;;;;;;21.00;8.90;;;15.00;99.90;;;;;;5047091;28;20112;-52
2023/07/22 01:37:36;;;;;;;18.05;8.00;;;14.90;99.90;;;;;;5045998;28;20128;-52
2023/07/22 01:40:12;;;;;;;14.60;7.40;;;14.90;99.90;;;;;;5047432;28;20052;-51
2023/07/22 01:42:42;;;;;;;19.85;8.73;;;14.90;99.90;;;;;;5044002;28;20039;-51
2023/07/22 01:45:09;;;;;;;16.08;7.15;;;14.80;99.90;;;;;;5033725;28;20466;-49
2023/07/22 01:47:35;;;;;;;16.02;8.25;;;14.90;99.90;;;;;;5041142;28;20104;-52
2023/07/22 01:50:02;;;;;;;16.02;7.85;;;14.80;99.90;;;;;;5051168;28;20025;-52
2023/07/22 01:52:28;;;;;;;16.13;7.77;;;14.80;99.90;;;;;;5060247;28;20481;-51
2023/07/22 01:54:53;;;;;;;18.52;8.30;;;14.80;99.90;;;;;;5063395;28;20016;-53
2023/07/22 01:57:19;;;;;;;15.77;7.50;;;14.80;99.90;;;;;;5068642;28;20024;-51
2023/07/22 01:59:45;;;;;;;16.17;7.75;;;14.90;99.90;;;;;;5044618;28;20032;-52
2023/07/22 02:02:10;;;;;;;17.55;8.23;;;14.90;99.90;;;;;;5054071;28;20029;-53
2023/07/22 02:04:36;;;;;;;18.45;8.88;;;14.90;99.90;;;;;;5056895;28;20036;-52
2023/07/22 02:07:01;;;;;;;21.55;8.30;;;15.00;99.90;;;;;;5053088;28;20037;-51
2023/07/22 02:09:27;;;;;;;19.52;8.23;;;15.00;99.90;;;;;;5048335;28;20028;-50
2023/07/22 02:11:53;;;;;;;18.23;7.82;;;15.00;99.90;;;;;;5069319;28;20556;-50
2023/07/22 02:14:19;;;;;;;18.02;7.90;;;15.00;99.90;;;;;;5059451;28;20059;-50
2023/07/22 02:16:45;;;;;;;13.45;6.93;;;15.00;99.90;;;;;;5052789;28;20029;-52
2023/07/22 02:19:10;;;;;;;17.55;7.10;;;15.10;99.90;;;;;;5053109;28;20028;-51
2023/07/22 02:21:36;;;;;;;13.45;6.68;;;15.10;99.90;;;;;;5068384;28;20123;-51
2023/07/22 02:24:02;;;;;;;13.55;7.30;;;15.00;99.90;;;;;;5066919;28;20492;-50
2023/07/22 02:26:27;;;;;;;15.70;6.78;;;15.10;99.90;;;;;;5048227;28;20045;-50
2023/07/22 02:28:54;;;;;;;15.60;6.72;;;15.00;99.90;;;;;;5031618;28;20120;-52
2023/07/22 02:31:22;;;;;;;15.00;7.47;;;15.00;99.90;;;;;;5058441;28;20191;-50
2023/07/22 02:33:47;;;;;;;16.40;7.35;;;15.00;99.90;;;;;;5064290;28;20381;-52
2023/07/22 02:36:13;;;;;;;13.77;7.18;;;15.00;99.90;;;;;;5053961;28;20074;-52
2023/07/22 02:38:38;;;;;;;16.95;6.78;;;15.00;99.90;;;;;;5048713;28;20041;-49
2023/07/22 02:41:07;;;;;;;13.20;6.30;;;15.00;99.90;;;;;;5051283;28;20389;-47
2023/07/22 02:43:35;;;;;;;11.93;6.20;;;15.00;99.90;;;;;;5052543;28;20112;-49
2023/07/22 02:46:03;;;;;;;11.90;6.53;;;15.00;99.90;;;;;;5057142;28;20017;-49
2023/07/22 02:48:29;;;;;;;16.20;7.45;;;15.00;99.90;;;;;;5072849;28;20123;-49
2023/07/22 02:50:55;;;;;;;18.75;7.10;;;14.90;99.90;;;;;;5062917;28;20029;-51
2023/07/22 02:53:20;;;;;;;18.75;7.65;;;15.00;99.90;;;;;;5051969;28;20545;-47
2023/07/22 02:55:46;;;;;;;16.20;6.75;;;15.00;99.90;;;;;;5065268;28;20030;-53
2023/07/22 02:58:12;;;;;;;17.98;6.88;;;15.00;99.90;;;;;;5061295;28;20032;-53
2023/07/22 03:00:38;;;;;;;11.95;6.57;;;15.00;99.90;;;;;;5049082;28;20029;-51
2023/07/22 03:03:05;;;;;;;11.73;5.88;;;15.00;99.90;;;;;;5050867;28;20524;-54
2023/07/22 03:05:31;;;;;;;13.10;6.25;;;15.00;99.90;;;;;;5065508;28;20024;-51
2023/07/22 03:07:58;;;;;;;14.07;6.20;;;15.00;99.90;;;;;;5052658;28;20424;-53
2023/07/22 03:10:29;;;;;;;37.65;7.47;;;15.00;99.90;;;;;;5047462;28;20083;-59
2023/07/22 03:12:55;;;;;;;15.18;6.13;;;15.00;99.90;;;;;;5049846;28;20040;-53
2023/07/22 03:15:22;;;;;;;12.17;5.93;;;14.90;99.90;;;;;;5053312;28;20086;-52
2023/07/22 03:17:49;;;;;;;14.40;6.00;;;15.00;99.90;;;;;;5056209;28;20271;-52
2023/07/22 03:20:16;;;;;;;9.30;5.05;;;15.00;99.90;;;;;;5051563;28;20064;-52
2023/07/22 03:22:43;;;;;;;12.68;6.30;;;15.00;99.90;;;;;;5047273;28;20546;-50
2023/07/22 03:25:10;;;;;;;8.80;4.82;;;15.00;99.90;;;;;;5060135;28;20017;-51
2023/07/22 03:27:36;;;;;;;9.63;4.95;;;15.10;99.90;;;;;;5076037;28;20035;-50
2023/07/22 03:30:14;;;;;;;10.13;4.40;;;15.00;99.90;;;;;;5074164;28;20028;-53
2023/07/22 03:32:44;;;;;;;11.35;4.90;;;15.10;99.90;;;;;;5063662;28;20071;-53
2023/07/22 03:35:10;;;;;;;10.68;4.43;;;15.10;99.90;;;;;;5075842;28;20110;-52
2023/07/22 03:37:36;;;;;;;12.23;5.30;;;15.10;99.90;;;;;;5062066;28;20033;-52
2023/07/22 03:40:06;;;;;;;8.05;4.63;;;15.10;99.90;;;;;;5049546;28;20496;-54
2023/07/22 03:42:34;;;;;;;10.18;4.78;;;15.10;99.90;;;;;;5060527;28;20037;-51
2023/07/22 03:45:03;;;;;;;8.33;3.73;;;15.10;99.90;;;;;;5055775;28;20111;-53
2023/07/22 03:47:29;;;;;;;6.85;4.20;;;15.10;99.90;;;;;;5064908;28;20285;-53
2023/07/22 03:49:55;;;;;;;12.40;5.13;;;15.10;99.90;;;;;;5072077;28;20414;-52
2023/07/22 03:52:20;;;;;;;8.98;3.78;;;15.10;99.90;;;;;;5054769;28;20116;-51
2023/07/22 03:54:46;;;;;;;7.97;3.92;;;15.20;99.90;;;;;;5052757;28;20121;-51
2023/07/22 03:57:11;;;;;;;5.60;3.67;;;15.20;99.90;;;;;;5073303;28;20489;-53
2023/07/22 03:59:38;;;;;;;8.68;3.92;;;15.20;99.90;;;;;;5055267;28;20025;-53
2023/07/22 04:02:05;;;;;;;4.70;3.47;;;15.20;99.90;;;;;;5055297;28;20087;-50
2023/07/22 04:04:31;;;;;;;6.25;3.85;;;15.20;99.90;;;;;;5055548;28;20021;-52
2023/07/22 04:06:57;;;;;;;6.63;3.72;;;15.20;99.90;;;;;;5052698;28;20036;-49
2023/07/22 04:09:22;;;;;;;6.35;3.50;;;15.20;99.90;;;;;;5052385;28;20021;-54
2023/07/22 04:11:48;;;;;;;5.88;3.72;;;15.20;99.90;;;;;;5065189;28;20035;-52
2023/07/22 04:14:14;;;;;;;8.70;4.05;;;15.30;99.90;;;;;;5075224;28;20512;-53
2023/07/22 04:16:40;;;;;;;12.13;5.05;;;15.30;99.90;;;;;;5059305;28;20029;-53
2023/07/22 04:19:06;;;;;;;8.10;3.95;;;15.30;99.90;;;;;;5055009;28;20086;-51
2023/07/22 04:21:31;;;;;;;9.38;5.40;;;15.30;99.90;;;;;;5059052;28;20113;-52
2023/07/22 04:23:57;;;;;;;11.35;4.90;;;15.40;99.90;;;;;;5060027;28;20492;-53
2023/07/22 04:26:23;;;;;;;11.10;4.47;;;15.40;99.90;;;;;;5064999;28;20036;-53
2023/07/22 04:28:48;;;;;;;11.02;4.68;;;15.40;99.90;;;;;;5074915;28;20388;-51
2023/07/22 04:31:14;;;;;;;9.27;4.47;;;15.40;99.90;;;;;;5072408;28;20491;-53
2023/07/22 04:33:41;;;;;;;12.95;5.57;;;15.40;99.90;;;;;;5057218;28;20024;-52
2023/07/22 04:36:07;;;;;;;16.17;5.65;;;15.50;99.90;;;;;;5074745;28;20119;-52
2023/07/22 04:38:32;;;;;;;10.40;5.60;;;15.50;99.90;;;;;;5064939;28;20108;-51
2023/07/22 04:41:00;;;;;;;10.93;5.47;;;15.50;99.90;;;;;;5059881;28;20025;-54
2023/07/22 04:43:26;;;;;;;10.45;5.32;;;15.50;99.90;;;;;;5074528;28;20043;-52
2023/07/22 04:45:52;;;;;;;13.52;5.85;;;15.60;99.90;;;;;;5058773;28;20393;-53
2023/07/22 04:48:22;;;;;;;15.25;6.45;;;15.60;99.90;;;;;;5054583;28;20025;-51
2023/07/22 04:50:47;;;;;;;18.08;6.68;;;15.60;99.90;;;;;;5059338;28;20021;-53
2023/07/22 04:53:13;;;;;;;12.23;6.35;;;15.60;99.90;;;;;;5057023;28;20025;-51
2023/07/22 04:55:39;;;;;;;16.23;7.20;;;15.70;99.90;;;;;;5054985;28;20043;-51
2023/07/22 04:58:05;;;;;;;20.25;6.90;;;15.70;99.90;;;;;;5065886;28;20074;-51
2023/07/22 05:00:31;;;;;;;21.80;6.80;;;15.70;99.90;;;;;;5056839;28;20419;-51
2023/07/22 05:02:57;;;;;;;17.10;7.03;;;15.70;99.90;;;;;;5074150;28;20036;-50
2023/07/22 05:05:23;;;;;;;13.88;6.35;;;15.80;99.90;;;;;;5060420;28;20028;-55
2023/07/22 05:07:49;;;;;;;18.17;6.95;;;15.80;99.90;;;;;;5051992;28;20021;-53
2023/07/22 05:10:15;;;;;;;15.88;6.78;;;15.80;99.90;;;;;;5052117;28;20032;-53
2023/07/22 05:12:42;;;;;;;17.88;6.38;;;15.90;99.90;;;;;;5074133;28;20112;-53
2023/07/22 05:15:09;;;;;;;16.05;7.35;;;15.90;99.90;;;;;;5071962;28;20112;-52
2023/07/22 05:17:35;;;;;;;18.90;8.30;;;15.90;99.90;;;;;;5059159;28;20470;-52
2023/07/22 05:20:00;;;;;;;22.15;7.85;;;15.90;99.90;;;;;;5052234;28;20064;-52
2023/07/22 05:22:26;;;;;;;15.45;7.32;;;16.00;99.90;;;;;;5051470;28;20072;-53
2023/07/22 05:24:52;;;;;;;19.92;8.50;;;16.00;99.90;;;;;;5053346;28;20029;-53
2023/07/22 05:27:18;;;;;;;19.63;8.13;;;16.00;99.90;;;;;;5053280;28;20052;-53
2023/07/22 05:29:44;;;;;;;17.65;8.27;;;16.10;99.90;;;;;;5053746;28;20025;-53
2023/07/22 05:32:10;;;;;;;22.42;8.85;;;16.10;99.90;;;;;;5053636;28;20032;-54
2023/07/22 05:34:35;;;;;;;43.70;10.00;;;16.10;99.90;;;;;;5051825;28;20389;-51
2023/07/22 05:37:01;;;;;;;22.02;9.60;;;16.20;99.90;;;;;;5053599;28;20021;-49
2023/07/22 05:39:26;;;;;;;20.15;10.07;;;16.20;99.90;;;;;;5051719;28;20037;-50
2023/07/22 05:41:52;;;;;;;23.42;9.48;;;16.20;99.90;;;;;;5053392;28;20128;-52
2023/07/22 05:44:18;;;;;;;25.88;9.45;;;16.20;99.90;;;;;;5053421;28;20033;-53
2023/07/22 05:46:44;;;;;;;23.67;9.05;;;16.20;99.90;;;;;;5053406;28;20461;-51
2023/07/22 05:49:10;;;;;;;22.73;8.95;;;16.30;99.90;;;;;;5052733;28;20017;-52
2023/07/22 05:51:36;;;;;;;16.60;8.65;;;16.30;99.90;;;;;;5052548;28;20070;-51
2023/07/22 05:54:02;;;;;;;29.88;10.00;;;16.30;99.90;;;;;;5050910;28;20025;-53
2023/07/22 05:56:28;;;;;;;27.63;9.82;;;16.40;99.90;;;;;;5052036;28;20105;-55
2023/07/22 05:58:54;;;;;;;22.63;10.38;;;16.40;99.90;;;;;;5052533;28;20390;-51
2023/07/22 06:01:20;;;;;;;26.23;9.80;;;16.40;99.90;;;;;;5053122;28;20072;-52
2023/07/22 06:03:45;;;;;;;21.45;9.23;;;16.50;99.90;;;;;;5053181;28;20549;-51
2023/07/22 06:06:11;;;;;;;22.33;9.60;;;16.60;99.90;;;;;;5051365;28;20100;-53
2023/07/22 06:08:37;;;;;;;21.63;9.85;;;16.60;99.90;;;;;;5050332;28;20014;-51
2023/07/22 06:11:02;;;;;;;27.67;10.90;;;16.60;99.90;;;;;;5051198;28;20033;-52
2023/07/22 06:13:28;;;;;;;25.35;9.65;;;16.70;99.90;;;;;;5052903;28;20033;-49
2023/07/22 06:15:54;;;;;;;25.45;9.25;;;16.80;99.90;;;;;;5055315;28;20023;-52
2023/07/22 06:18:19;;;;;;;27.13;9.43;;;16.80;99.90;;;;;;5072099;28;20031;-52
2023/07/22 06:20:45;;;;;;;24.70;9.98;;;16.90;99.90;;;;;;5068113;28;20021;-59
2023/07/22 06:23:11;;;;;;;26.75;9.32;;;17.00;99.90;;;;;;5052721;28;20079;-51
2023/07/22 06:25:37;;;;;;;22.63;10.27;;;17.10;99.90;;;;;;5054323;28;20065;-53
2023/07/22 06:28:02;;;;;;;17.77;8.93;;;17.10;99.90;;;;;;5072798;28;20028;-53
2023/07/22 06:30:28;;;;;;;23.02;9.48;;;17.20;99.90;;;;;;5071057;28;20028;-49
2023/07/22 06:32:54;;;;;;;19.55;9.30;;;17.20;99.90;;;;;;5071999;28;20113;-52
2023/07/22 06:35:20;;;;;;;21.30;9.68;;;17.20;99.90;;;;;;5061851;28;20030;-52
2023/07/22 06:37:46;;;;;;;21.40;9.10;;;17.20;99.90;;;;;;5057127;28;20036;-51
2023/07/22 06:40:11;;;;;;;21.75;9.10;;;17.30;99.90;;;;;;5053778;28;20053;-53
2023/07/22 06:42:37;;;;;;;18.50;9.05;;;17.30;99.90;;;;;;5072421;28;20043;-51
2023/07/22 06:45:05;;;;;;;29.73;10.70;;;17.40;99.90;;;;;;5060136;28;20029;-56
2023/07/22 06:47:31;;;;;;;19.35;8.73;;;17.50;99.90;;;;;;5046769;28;20039;-52
2023/07/22 06:49:57;;;;;;;28.85;10.00;;;17.60;99.90;;;;;;5032669;28;20029;-53
2023/07/22 06:52:23;;;;;;;17.38;8.15;;;17.60;99.90;;;;;;5042272;28;20033;-51
2023/07/22 06:54:52;;;;;;;16.17;7.82;;;17.60;99.90;;;;;;5058350;28;20381;-52
2023/07/22 06:57:17;;;;;;;23.45;9.32;;;17.70;99.90;;;;;;5068764;28;20103;-42
2023/07/22 06:59:43;;;;;;;20.05;8.90;;;17.70;99.90;;;;;;5072493;28;20505;-38
2023/07/22 07:02:09;;;;;;;18.15;8.63;;;17.80;99.90;;;;;;5071186;28;20085;-40
2023/07/22 07:04:35;;;;;;;27.60;9.10;;;17.80;99.90;;;;;;5057093;28;20048;-40
2023/07/22 07:07:01;;;;;;;21.63;8.63;;;17.80;99.90;;;;;;5032797;28;20018;-40
2023/07/22 07:09:26;;;;;;;19.10;8.63;;;17.90;99.90;;;;;;5040406;28;20037;-44
2023/07/22 07:11:52;;;;;;;18.20;8.05;;;18.00;99.90;;;;;;5063594;28;20393;-40
2023/07/22 07:14:18;;;;;;;24.42;8.35;;;18.10;99.90;;;;;;5044290;28;20427;-40
2023/07/22 07:16:44;;;;;;;17.70;9.00;;;18.10;99.90;;;;;;5051835;28;20472;-43
2023/07/22 07:19:10;;;;;;;15.25;8.27;;;18.00;99.90;;;;;;5068056;28;20039;-43
2023/07/22 07:21:36;;;;;;;17.58;8.35;;;18.00;99.90;;;;;;5059830;28;20409;-40
2023/07/22 07:24:01;;;;;;;18.42;8.77;;;18.00;99.90;;;;;;5052204;28;20075;-45
2023/07/22 07:26:27;;;;;;;18.75;7.82;;;18.00;99.90;;;;;;5045137;28;20123;-40
2023/07/22 07:28:53;;;;;;;17.77;8.25;;;18.10;99.90;;;;;;5066814;28;20069;-40
2023/07/22 07:31:19;;;;;;;20.85;7.93;;;18.10;99.90;;;;;;5052273;28;20108;-40
2023/07/22 07:33:45;;;;;;;24.83;9.55;;;18.20;99.90;;;;;;5052292;28;20029;-41
2023/07/22 07:36:11;;;;;;;21.23;8.20;;;18.20;99.90;;;;;;5066006;28;20383;-43
2023/07/22 07:38:36;;;;;;;19.58;7.55;;;18.30;99.90;;;;;;5063967;28;20044;-42
2023/07/22 07:41:04;;;;;;;17.33;6.82;;;18.40;99.90;;;;;;5062337;28;20038;-49
2023/07/22 07:43:30;;;;;;;18.40;9.27;;;18.50;99.90;;;;;;5068692;28;20073;-40
2023/07/22 07:46:20;;;;;;;19.55;8.27;;;18.60;99.90;;;;;;5070622;28;20117;-42
2023/07/22 07:48:53;;;;;;;18.92;8.68;;;18.70;99.90;;;;;;5057841;28;20020;-53
2023/07/22 07:51:21;;;;;;;22.55;8.68;;;18.80;99.90;;;;;;5075552;28;20082;-53
2023/07/22 07:53:46;;;;;;;17.10;7.97;;;18.90;99.90;;;;;;5074165;28;20480;-53
2023/07/22 07:56:13;;;;;;;18.00;7.80;;;19.10;99.90;;;;;;5070777;28;20065;-53
2023/07/22 07:58:39;;;;;;;17.65;7.82;;;19.20;99.90;;;;;;5075491;28;20430;-53
2023/07/22 08:01:06;;;;;;;17.90;7.85;;;19.30;99.90;;;;;;5073652;28;20025;-51
2023/07/22 08:03:33;;;;;;;18.10;7.57;;;19.30;99.90;;;;;;5066795;28;20591;-53
2023/07/22 08:05:58;;;;;;;20.23;8.10;;;19.30;99.90;;;;;;5047393;28;20024;-51
2023/07/22 08:08:24;;;;;;;18.33;6.65;;;19.30;99.90;;;;;;5050355;28;20440;-54
2023/07/22 08:10:59;;;;;;;18.90;7.55;;;19.40;99.90;;;;;;5057607;28;20022;-53
2023/07/22 08:13:25;;;;;;;14.00;7.68;;;19.30;99.90;;;;;;5055268;28;20032;-51
2023/07/22 08:15:52;;;;;;;15.60;7.85;;;19.30;99.90;;;;;;5053474;28;20025;-53
2023/07/22 08:18:17;;;;;;;17.17;7.72;;;19.20;99.90;;;;;;5054754;28;20539;-57
2023/07/22 08:20:43;;;;;;;18.02;7.60;;;19.30;99.90;;;;;;5054043;28;20029;-53
2023/07/22 08:23:09;;;;;;;18.05;8.88;;;19.30;99.90;;;;;;5053308;28;20047;-50
2023/07/22 08:25:35;;;;;;;15.98;7.20;;;19.50;99.90;;;;;;5054833;28;20535;-53
2023/07/22 08:28:00;;;;;;;18.08;8.00;;;19.60;99.90;;;;;;5054107;28;20075;-52
2023/07/22 08:30:26;;;;;;;12.68;7.00;;;19.70;99.90;;;;;;5054362;28;20035;-53
2023/07/22 08:32:51;;;;;;;21.45;7.30;;;19.80;99.90;;;;;;5054734;28;20090;-53
2023/07/22 08:35:17;;;;;;;13.35;6.72;;;19.80;99.90;;;;;;5054763;28;20036;-52
2023/07/22 08:37:43;;;;;;;10.65;5.85;;;19.90;99.90;;;;;;5053727;28;20491;-51
2023/07/22 08:40:10;;;;;;;16.35;6.25;;;20.00;99.90;;;;;;5052799;28;20020;-46
2023/07/22 08:42:37;;;;;;;11.70;6.15;;;20.20;99.90;;;;;;5053179;28;20529;-62
2023/07/22 08:45:06;;;;;;;13.52;6.40;;;20.10;99.90;;;;;;5054832;28;20021;-53
2023/07/22 08:47:32;;;;;;;9.45;5.70;;;20.20;99.90;;;;;;5054301;28;20048;-55
2023/07/22 08:50:02;;;;;;;9.88;5.25;;;20.10;99.90;;;;;;5054675;28;20144;-49
2023/07/22 08:52:28;;;;;;;10.45;5.10;;;20.10;99.90;;;;;;5053324;28;20021;-53
2023/07/22 08:54:55;;;;;;;11.30;5.40;;;20.20;99.90;;;;;;5053178;28;20036;-53
2023/07/22 08:57:22;;;;;;;8.13;3.97;;;20.10;99.90;;;;;;5051238;28;20032;-53
2023/07/22 08:59:48;;;;;;;8.30;4.53;;;20.10;99.90;;;;;;5057414;28;20037;-52
2023/07/22 09:02:15;;;;;;;9.38;4.95;;;20.20;99.90;;;;;;5054176;28;20366;-52
2023/07/22 09:04:42;;;;;;;11.02;4.93;;;20.20;99.90;;;;;;5054442;28;20124;-53
2023/07/22 09:07:09;;;;;;;13.17;4.53;;;20.10;99.90;;;;;;5054169;28;20061;-51
2023/07/22 09:09:34;;;;;;;6.83;4.27;;;20.10;99.90;;;;;;5054068;28;20298;-50
2023/07/22 09:12:01;;;;;;;7.80;4.15;;;20.10;99.90;;;;;;5052100;28;20264;-53
2023/07/22 09:14:30;;;;;;;7.75;4.57;;;20.20;99.90;;;;;;5053244;28;20389;-52
2023/07/22 09:16:57;;;;;;;9.57;4.35;;;20.20;99.90;;;;;;5054218;28;20032;-50
2023/07/22 09:19:23;;;;;;;7.88;4.13;;;20.20;99.90;;;;;;5054214;28;20075;-53
2023/07/22 09:21:48;;;;;;;9.10;4.68;;;20.10;99.90;;;;;;5053744;28;20029;-52
2023/07/22 09:24:25;;;;;;;6.90;3.50;;;20.10;99.90;;;;;;5053778;28;20081;-53
2023/07/22 09:26:51;;;;;;;7.20;3.90;;;20.10;99.90;;;;;;5053521;28;20117;-52
2023/07/22 09:29:17;;;;;;;14.02;4.22;;;20.10;99.90;;;;;;5039874;28;20021;-52
2023/07/22 09:31:54;;;;;;;8.23;3.90;;;20.00;99.90;;;;;;5041861;28;20050;-52
2023/07/22 09:34:19;;;;;;;8.20;3.80;;;20.00;99.90;;;;;;5053685;28;20481;-53
2023/07/22 09:36:56;;;;;;;8.25;3.95;;;19.90;99.90;;;;;;5052314;28;20029;-52
2023/07/22 09:39:25;;;;;;;8.20;3.35;;;19.90;99.90;;;;;;5051448;28;20105;-51
2023/07/22 09:41:52;;;;;;;10.82;4.45;;;20.00;99.90;;;;;;5053311;28;20116;-52
2023/07/22 09:44:18;;;;;;;8.35;3.25;;;20.10;99.90;;;;;;5048514;28;20033;-52
2023/07/22 09:46:50;;;;;;;6.82;3.45;;;20.10;99.90;;;;;;5050741;28;20028;-52
2023/07/22 09:49:18;;;;;;;6.90;3.47;;;20.10;99.90;;;;;;5051807;28;20021;-48
2023/07/22 09:51:44;;;;;;;8.98;4.25;;;20.10;99.90;;;;;;5050510;28;20561;-53
2023/07/22 09:54:10;;;;;;;5.35;3.35;;;20.10;99.90;;;;;;5047747;28;20053;-52
2023/07/22 09:56:49;;;;;;;10.27;4.03;;;20.20;99.90;;;;;;5052063;28;20060;-52
2023/07/22 09:59:18;;;;;;;6.90;3.67;;;20.40;99.90;;;;;;5050518;28;20029;-51
2023/07/22 10:01:46;;;;;;;5.28;3.70;;;20.60;99.90;;;;;;5050257;28;20025;-51
2023/07/22 10:04:15;;;;;;;4.40;2.90;;;20.70;99.90;;;;;;5033782;28;20029;-51
2023/07/22 10:06:43;;;;;;;9.98;3.72;;;20.80;99.90;;;;;;5049121;28;20108;-50
2023/07/22 10:09:11;;;;;;;12.30;3.45;;;20.90;99.90;;;;;;5053003;28;20042;-51
2023/07/22 10:11:38;;;;;;;9.32;3.40;;;21.00;99.90;;;;;;5051492;28;20389;-52
2023/07/22 10:14:05;;;;;;;5.93;3.17;;;21.00;99.90;;;;;;5049697;28;20131;-39
2023/07/22 10:16:31;;;;;;;19.83;2.75;;;21.00;99.90;;;;;;5047797;28;20381;-44
2023/07/22 10:19:00;;;;;;;11.02;5.43;;;20.90;99.90;;;;;;5064983;28;20040;-40
2023/07/22 10:21:28;;;;;;;8.50;2.55;;;20.80;99.90;;;;;;5064572;28;20028;-53
2023/07/22 10:23:55;;;;;;;7.15;3.10;;;20.70;99.90;;;;;;5051804;28;20587;-51
2023/07/22 10:26:21;;;;;;;4.97;3.10;;;20.50;99.90;;;;;;5035218;28;20025;-52
2023/07/22 10:28:47;;;;;;;5.30;2.58;;;20.50;99.90;;;;;;5032813;28;20561;-53
2023/07/22 10:31:18;;;;;;;5.20;2.42;;;20.40;99.90;;;;;;5032798;28;20026;-53
2023/07/22 10:33:46;;;;;;;6.32;3.08;;;20.30;99.90;;;;;;5040456;28;20465;-52
2023/07/22 10:36:17;;;;;;;3.78;2.70;;;20.20;99.90;;;;;;5048128;28;20377;-52
2023/07/22 10:38:42;;;;;;;4.93;2.60;;;20.20;99.90;;;;;;5051433;28;20459;-52
2023/07/22 10:41:19;;;;;;;4.60;2.65;;;20.10;99.90;;;;;;5049238;28;20033;-52
2023/07/22 10:44:02;;;;;;;3.90;2.75;;;20.00;99.90;;;;;;5052572;28;20067;-52
2023/07/22 10:46:36;;;;;;;2.83;2.60;;;19.90;99.90;;;;;;5055762;28;20025;-53
2023/07/22 10:49:41;;;;;;;8.90;3.65;;;19.80;99.90;;;;;;5069655;28;20481;-50
2023/07/22 10:52:10;;;;;;;7.68;3.05;;;19.80;99.90;;;;;;5065876;28;20028;-53
2023/07/22 10:54:36;;;;;;;4.13;2.38;;;19.80;99.90;;;;;;5055523;28;20025;-53
2023/07/22 10:57:17;;;;;;;7.45;2.78;;;19.70;99.90;;;;;;5063005;28;20023;-48
2023/07/22 10:59:55;;;;;;;4.72;2.55;;;19.70;99.90;;;;;;5067998;28;20040;-53
2023/07/22 11:02:28;;;;;;;9.07;2.78;;;19.30;99.90;;;;;;5054343;28;20474;-39
2023/07/22 11:05:05;;;;;;;2.15;1.95;;;18.90;99.90;;;;;;5063615;28;20484;-39
2023/07/22 11:07:43;;;;;;;9.18;2.33;;;18.50;99.90;;;;;;5071145;28;20021;-39
2023/07/22 11:10:19;;;;;;;5.00;3.00;;;18.20;99.90;;;;;;5057520;28;20028;-41
2023/07/22 11:12:45;;;;;;;7.90;2.95;;;17.80;99.90;;;;;;5032281;28;20425;-51
2023/07/22 11:15:14;;;;;;;5.72;2.40;;;17.60;99.90;;;;;;5070263;28;20322;-41
2023/07/22 11:17:40;;;;;;;4.57;2.20;;;17.50;99.90;;;;;;5072256;28;20103;-41
2023/07/22 11:20:05;;;;;;;3.58;2.53;;;17.60;99.90;;;;;;5071545;28;20565;-41
2023/07/22 11:22:31;;;;;;;4.43;2.70;;;17.70;99.90;;;;;;5072391;28;20038;-42
2023/07/22 11:25:00;;;;;;;3.30;1.90;;;17.90;99.90;;;;;;5068684;28;20519;-40
2023/07/22 11:27:26;;;;;;;4.57;2.20;;;18.00;99.90;;;;;;5066087;28;20044;-46
2023/07/22 11:29:52;;;;;;;2.22;1.75;;;18.20;99.90;;;;;;5062302;28;20456;-42
2023/07/22 11:32:21;;;;;;;3.90;2.13;;;18.30;99.90;;;;;;5075886;28;20056;-42
2023/07/22 11:34:48;;;;;;;7.68;2.53;;;18.40;99.90;;;;;;5076190;28;20031;-43
2023/07/22 11:37:14;;;;;;;4.13;2.53;;;18.40;99.90;;;;;;5072062;28;20452;-41
2023/07/22 11:39:41;;;;;;;6.17;2.80;;;18.40;99.90;;;;;;5067092;28;20027;-41
2023/07/22 11:42:07;;;;;;;3.55;1.67;;;18.30;99.90;;;;;;5053976;28;20040;-45
2023/07/22 11:44:33;;;;;;;2.92;1.95;;;18.20;99.90;;;;;;5049905;28;20036;-43
2023/07/22 11:47:10;;;;;;;4.68;1.77;;;18.30;99.90;;;;;;5054612;28;20107;-41
2023/07/22 11:49:40;;;;;;;9.55;3.88;;;18.30;99.90;;;;;;5056055;28;20104;-41
2023/07/22 11:52:11;;;;;;;11.27;5.75;;;18.40;99.90;;;;;;5054797;28;20477;-40
2023/07/22 11:54:42;;;;;;;8.93;4.07;;;18.40;99.90;;;;;;5051624;28;20035;-42
2023/07/22 11:57:16;;;;;;;8.52;3.50;;;18.50;99.90;;;;;;5040915;28;20111;-48
2023/07/22 11:59:50;;;;;;;9.20;4.40;;;18.50;99.90;;;;;;5041910;28;20477;-41
2023/07/22 12:02:23;;;;;;;11.15;3.90;;;18.60;99.90;;;;;;5041638;28;20521;-42
2023/07/22 12:05:03;;;;;;;9.75;3.75;;;18.70;99.90;;;;;;5049658;28;20025;-42
2023/07/22 12:07:33;;;;;;;7.65;2.15;;;18.70;99.90;;;;;;5056541;28;20021;-42
2023/07/22 12:10:03;;;;;;;6.18;2.58;;;18.70;99.90;;;;;;5041251;28;20021;-40
2023/07/22 12:12:42;;;;;;;4.80;2.67;;;18.70;99.90;;;;;;5052938;28;20451;-42
2023/07/22 12:15:17;;;;;;;8.10;3.28;;;18.70;99.90;;;;;;5052484;28;20041;-40
2023/07/22 12:17:51;;;;;;;3.47;2.28;;;18.70;99.90;;;;;;5046020;28;20029;-42
2023/07/22 12:20:18;;;;;;;3.90;2.45;;;18.70;99.90;;;;;;5052221;28;20037;-41
2023/07/22 12:22:43;;;;;;;5.22;2.15;;;18.70;99.90;;;;;;5051041;28;20390;-40
2023/07/22 12:25:09;;;;;;;5.25;2.55;;;18.80;99.90;;;;;;5051392;28;20032;-42
2023/07/22 12:27:37;;;;;;;3.28;2.17;;;18.80;99.90;;;;;;5054724;28;20040;-51
2023/07/22 12:30:03;;;;;;;5.43;2.75;;;18.90;99.90;;;;;;5035774;28;20071;-53
2023/07/22 12:32:29;;;;;;;6.40;2.47;;;18.90;99.90;;;;;;5052238;28;20124;-53
2023/07/22 12:34:54;;;;;;;6.07;2.50;;;19.10;99.90;;;;;;5049150;28;20107;-52
2023/07/22 12:37:20;;;;;;;7.40;2.67;;;19.30;99.90;;;;;;5049560;28;20052;-53
2023/07/22 12:39:45;;;;;;;5.35;2.70;;;19.70;99.90;;;;;;5053922;28;20025;-52
2023/07/22 12:42:11;;;;;;;3.13;1.50;;;20.00;99.90;;;;;;5050811;28;20037;-51